createdAt,value
2019-03-21T00:01:49.997Z,-1.30
2019-03-21T00:04:19.610Z,-1.30
2019-03-21T00:06:49.093Z,-1.30
2019-03-21T00:09:19.064Z,-1.30
2019-03-21T00:12:03.337Z,-1.30
2019-03-21T00:15:03.495Z,-1.30
2019-03-21T00:17:36.172Z,-1.30
2019-03-21T00:20:09.293Z,-1.40
2019-03-21T00:22:38.781Z,-1.40
2019-03-21T00:25:09.345Z,-1.40
2019-03-21T00:27:38.853Z,-1.40
2019-03-21T00:30:12.512Z,-1.50
2019-03-21T00:32:42.207Z,-1.50
2019-03-21T00:35:11.798Z,-1.50
2019-03-21T00:37:41.466Z,-1.50
2019-03-21T00:40:14.189Z,-1.50
2019-03-21T00:42:43.733Z,-1.50
2019-03-21T00:45:14.843Z,-1.50
2019-03-21T00:47:44.471Z,-1.50
2019-03-21T00:50:15.722Z,-1.40
2019-03-21T00:52:46.714Z,-1.40
2019-03-21T00:55:16.133Z,-1.40
2019-03-21T00:57:45.633Z,-1.30
2019-03-21T01:00:18.798Z,-1.30
2019-03-21T01:02:48.297Z,-1.30
2019-03-21T01:05:17.713Z,-1.30
2019-03-21T01:07:47.311Z,-1.30
2019-03-21T01:10:17.606Z,-1.30
2019-03-21T01:12:47.014Z,-1.30
2019-03-21T01:15:16.481Z,-1.20
2019-03-21T01:17:46.018Z,-1.20
2019-03-21T01:20:17.089Z,-1.30
2019-03-21T01:22:46.697Z,-1.20
2019-03-21T01:25:19.492Z,-1.30
2019-03-21T01:27:48.962Z,-1.30
2019-03-21T01:30:18.473Z,-1.30
2019-03-21T01:32:48.019Z,-1.30
2019-03-21T01:35:17.509Z,-1.40
2019-03-21T01:37:47.040Z,-1.40
2019-03-21T01:40:19.098Z,-1.40
2019-03-21T01:42:48.601Z,-1.40
2019-03-21T01:45:20.027Z,-1.40
2019-03-21T01:47:49.844Z,-1.40
2019-03-21T01:50:19.361Z,-1.40
2019-03-21T01:52:48.901Z,-1.30
2019-03-21T01:55:18.474Z,-1.30
2019-03-21T01:57:47.968Z,-1.30
2019-03-21T02:00:23.834Z,-1.30
2019-03-21T02:02:54.815Z,-1.30
2019-03-21T02:05:24.302Z,-1.30
2019-03-21T02:07:53.769Z,-1.30
2019-03-21T02:10:23.333Z,-1.30
2019-03-21T02:12:52.909Z,-1.30
2019-03-21T02:15:22.454Z,-1.30
2019-03-21T02:17:52.036Z,-1.30
2019-03-21T02:20:21.642Z,-1.30
2019-03-21T02:22:51.204Z,-1.30
2019-03-21T02:25:22.758Z,-1.30
2019-03-21T02:27:52.312Z,-1.40
2019-03-21T02:30:27.638Z,-1.30
2019-03-21T02:33:01.869Z,-1.40
2019-03-21T02:35:31.414Z,-1.30
2019-03-21T02:38:00.925Z,-1.30
2019-03-21T02:40:30.506Z,-1.30
2019-03-21T02:43:00.080Z,-1.40
2019-03-21T02:45:29.678Z,-1.40
2019-03-21T02:47:59.129Z,-1.40
2019-03-21T02:50:31.184Z,-1.40
2019-03-21T02:53:00.736Z,-1.40
2019-03-21T02:55:30.226Z,-1.40
2019-03-21T02:57:59.730Z,-1.40
2019-03-21T03:00:29.929Z,-1.40
2019-03-21T03:03:00.306Z,-1.40
2019-03-21T03:05:30.589Z,-1.40
2019-03-21T03:08:00.097Z,-1.40
2019-03-21T03:10:32.510Z,-1.40
2019-03-21T03:13:02.078Z,-1.50
2019-03-21T03:15:32.386Z,-1.50
2019-03-21T03:18:02.256Z,-1.50
2019-03-21T03:20:33.019Z,-1.50
2019-03-21T03:23:02.423Z,-1.60
2019-03-21T03:25:31.861Z,-1.60
2019-03-21T03:28:05.213Z,-1.60
2019-03-21T03:30:34.975Z,-1.70
2019-03-21T03:33:04.431Z,-1.70
2019-03-21T03:35:34.215Z,-1.70
2019-03-21T03:38:03.769Z,-1.80
2019-03-21T03:40:36.570Z,-1.80
2019-03-21T03:43:06.137Z,-1.80
2019-03-21T03:45:38.463Z,-1.80
2019-03-21T03:48:08.552Z,-1.80
2019-03-21T03:50:38.024Z,-1.90
2019-03-21T03:53:07.679Z,-1.90
2019-03-21T03:55:37.370Z,-1.80
2019-03-21T03:58:09.106Z,-1.80
2019-03-21T04:00:38.940Z,-1.80
2019-03-21T04:03:08.522Z,-1.80
2019-03-21T04:05:38.035Z,-1.80
2019-03-21T04:08:07.898Z,-1.80
2019-03-21T04:10:39.505Z,-1.80
2019-03-21T04:13:09.034Z,-1.80
2019-03-21T04:15:51.756Z,-1.80
2019-03-21T04:18:11.057Z,-1.80
2019-03-21T04:20:42.471Z,-1.90
2019-03-21T04:23:12.122Z,-1.90
2019-03-21T04:25:47.840Z,-1.90
2019-03-21T04:28:17.428Z,-1.90
2019-03-21T04:30:49.676Z,-2.00
2019-03-21T04:33:22.364Z,-2.00
2019-03-21T04:35:50.357Z,-2.00
2019-03-21T04:38:19.861Z,-2.00
2019-03-21T04:40:49.365Z,-2.00
2019-03-21T04:43:18.840Z,-2.00
2019-03-21T04:45:48.388Z,-2.10
2019-03-21T04:48:17.778Z,-2.10
2019-03-21T04:50:47.184Z,-2.20
2019-03-21T04:53:16.653Z,-2.20
2019-03-21T04:55:46.225Z,-2.30
2019-03-21T04:58:15.633Z,-2.30
2019-03-21T05:00:45.078Z,-2.30
2019-03-21T05:03:14.649Z,-2.40
2019-03-21T05:05:44.221Z,-2.40
2019-03-21T05:08:13.757Z,-2.40
2019-03-21T05:10:43.412Z,-2.40
2019-03-21T05:13:12.892Z,-2.50
2019-03-21T05:15:42.477Z,-2.40
2019-03-21T05:18:15.478Z,-2.50
2019-03-21T05:20:44.922Z,-2.50
2019-03-21T05:23:14.412Z,-2.40
2019-03-21T05:25:44.357Z,-2.50
2019-03-21T05:28:13.909Z,-2.40
2019-03-21T05:31:07.867Z,-2.40
2019-03-21T05:33:37.335Z,-2.30
2019-03-21T05:36:06.848Z,-2.20
2019-03-21T05:38:36.331Z,-2.20
2019-03-21T05:41:06.306Z,-2.10
2019-03-21T05:43:39.787Z,-2.10
2019-03-21T05:46:10.190Z,-2.00
2019-03-21T05:48:39.771Z,-1.90
2019-03-21T05:51:09.425Z,-1.80
2019-03-21T05:53:39.371Z,-1.70
2019-03-21T05:56:11.906Z,-1.60
2019-03-21T05:58:41.401Z,-1.40
2019-03-21T06:01:14.090Z,-1.30
2019-03-21T06:03:50.555Z,-1.10
2019-03-21T06:06:42.655Z,-1.00
2019-03-21T06:09:13.674Z,-0.80
2019-03-21T06:11:45.733Z,-0.70
2019-03-21T06:14:15.225Z,-0.50
2019-03-21T06:16:44.840Z,-0.40
2019-03-21T06:19:31.212Z,-0.20
2019-03-21T06:22:45.520Z,-0.10
2019-03-21T06:25:51.975Z,0.00
2019-03-21T06:28:21.372Z,0.10
2019-03-21T06:30:50.812Z,0.30
2019-03-21T06:33:20.252Z,0.40
2019-03-21T06:35:50.030Z,0.50
2019-03-21T06:38:19.437Z,0.70
2019-03-21T06:40:49.039Z,0.80
2019-03-21T06:43:18.711Z,0.90
2019-03-21T06:45:48.395Z,1.00
2019-03-21T06:48:18.297Z,1.10
2019-03-21T06:50:47.732Z,1.20
2019-03-21T06:53:17.233Z,1.20
2019-03-21T06:55:46.737Z,1.40
2019-03-21T06:58:16.153Z,1.40
2019-03-21T07:00:45.602Z,1.60
2019-03-21T07:03:16.409Z,1.70
2019-03-21T07:05:46.250Z,1.80
2019-03-21T07:08:15.723Z,1.90
2019-03-21T07:10:45.292Z,2.00
2019-03-21T07:13:14.922Z,2.10
2019-03-21T07:15:44.441Z,2.30
2019-03-21T07:18:13.897Z,2.40
2019-03-21T07:20:43.369Z,2.50
2019-03-21T07:23:12.988Z,2.60
2019-03-21T07:25:42.662Z,2.70
2019-03-21T07:28:12.254Z,2.90
2019-03-21T07:30:41.727Z,3.00
2019-03-21T07:33:11.393Z,3.10
2019-03-21T07:35:40.920Z,3.10
2019-03-21T07:38:10.330Z,3.20
2019-03-21T07:40:39.773Z,3.30
2019-03-21T07:43:09.341Z,3.40
2019-03-21T07:45:38.766Z,3.50
2019-03-21T07:48:08.213Z,3.60
2019-03-21T07:50:37.609Z,3.70
2019-03-21T07:53:07.217Z,3.90
2019-03-21T07:55:36.650Z,3.90
2019-03-21T07:58:06.266Z,4.10
2019-03-21T08:00:35.837Z,4.20
2019-03-21T08:03:05.427Z,4.30
2019-03-21T08:05:40.390Z,4.50
2019-03-21T08:08:06.157Z,4.50
2019-03-21T08:10:35.699Z,4.60
2019-03-21T08:13:05.275Z,4.70
2019-03-21T08:15:34.794Z,4.80
2019-03-21T08:18:04.367Z,4.80
2019-03-21T08:20:33.936Z,4.90
2019-03-21T08:23:03.460Z,5.10
2019-03-21T08:25:32.965Z,5.20
2019-03-21T08:28:02.554Z,5.30
2019-03-21T08:30:58.654Z,5.40
2019-03-21T08:33:28.105Z,5.60
2019-03-21T08:35:57.587Z,5.70
2019-03-21T08:38:27.543Z,5.70
2019-03-21T08:40:57.015Z,5.90
2019-03-21T08:43:26.412Z,5.90
2019-03-21T08:45:55.895Z,5.90
2019-03-21T08:48:25.285Z,6.00
2019-03-21T08:50:54.850Z,6.00
2019-03-21T08:53:24.259Z,6.10
2019-03-21T08:55:53.812Z,6.20
2019-03-21T08:58:23.241Z,6.30
2019-03-21T09:00:52.727Z,6.40
2019-03-21T09:03:22.133Z,6.50
2019-03-21T09:05:51.545Z,6.60
2019-03-21T09:08:20.961Z,6.70
2019-03-21T09:10:50.444Z,6.80
2019-03-21T09:13:19.950Z,6.80
2019-03-21T09:15:49.445Z,6.80
2019-03-21T09:18:19.144Z,6.80
2019-03-21T09:20:48.713Z,6.80
2019-03-21T09:23:18.182Z,6.90
2019-03-21T09:25:47.703Z,7.00
2019-03-21T09:28:17.092Z,7.10
2019-03-21T09:30:46.554Z,7.20
2019-03-21T09:33:16.030Z,7.30
2019-03-21T09:35:45.415Z,7.40
2019-03-21T09:38:14.996Z,7.50
2019-03-21T09:40:44.469Z,7.50
2019-03-21T09:43:13.938Z,7.60
2019-03-21T09:45:43.482Z,7.60
2019-03-21T09:48:12.975Z,7.60
2019-03-21T09:50:42.426Z,7.70
2019-03-21T09:53:11.932Z,7.70
2019-03-21T09:55:41.418Z,7.80
2019-03-21T09:58:10.978Z,7.90
2019-03-21T10:00:40.368Z,8.00
2019-03-21T10:03:09.881Z,8.10
2019-03-21T10:05:39.402Z,8.20
2019-03-21T10:08:08.998Z,8.20
2019-03-21T10:10:38.479Z,8.20
2019-03-21T10:13:07.966Z,8.20
2019-03-21T10:15:38.922Z,8.20
2019-03-21T10:18:08.483Z,8.20
2019-03-21T10:20:38.059Z,8.30
2019-03-21T10:23:07.646Z,8.50
2019-03-21T10:25:37.129Z,8.60
2019-03-21T10:28:06.662Z,8.70
2019-03-21T10:30:40.627Z,9.00
2019-03-21T10:33:11.652Z,9.20
2019-03-21T10:35:41.136Z,9.40
2019-03-21T10:38:10.660Z,9.50
2019-03-21T10:40:40.318Z,9.60
2019-03-21T10:43:10.700Z,9.60
2019-03-21T10:45:40.522Z,9.70
2019-03-21T10:48:10.022Z,9.70
2019-03-21T10:50:40.517Z,9.80
2019-03-21T10:53:10.532Z,9.90
2019-03-21T10:55:40.023Z,9.90
2019-03-21T10:58:09.797Z,10.00
2019-03-21T11:00:39.641Z,10.10
2019-03-21T11:03:09.185Z,10.10
2019-03-21T11:05:38.806Z,10.20
2019-03-21T11:08:08.338Z,10.30
2019-03-21T11:10:37.955Z,10.20
2019-03-21T11:13:07.540Z,10.30
2019-03-21T11:15:37.084Z,10.40
2019-03-21T11:18:06.662Z,10.40
2019-03-21T11:20:40.370Z,10.60
2019-03-21T11:23:10.128Z,10.50
2019-03-21T11:25:42.449Z,10.50
2019-03-21T11:28:11.929Z,10.70
2019-03-21T11:30:45.462Z,10.60
2019-03-21T11:33:15.081Z,10.50
2019-03-21T11:35:44.640Z,10.70
2019-03-21T11:38:14.045Z,10.70
2019-03-21T11:40:43.524Z,10.60
2019-03-21T11:43:14.921Z,10.60
2019-03-21T11:45:44.521Z,10.70
2019-03-21T11:48:13.962Z,10.80
2019-03-21T11:50:43.490Z,10.90
2019-03-21T11:53:12.966Z,11.10
2019-03-21T11:55:42.537Z,11.20
2019-03-21T11:58:11.986Z,11.20
2019-03-21T12:00:44.029Z,11.30
2019-03-21T12:03:13.510Z,11.30
2019-03-21T12:05:42.927Z,11.40
2019-03-21T12:08:12.419Z,11.50
2019-03-21T12:10:41.911Z,11.50
2019-03-21T12:13:11.509Z,11.40
2019-03-21T12:15:41.031Z,11.40
2019-03-21T12:18:10.550Z,11.40
2019-03-21T12:20:39.984Z,11.40
2019-03-21T12:23:09.557Z,11.40
2019-03-21T12:25:38.963Z,11.40
2019-03-21T12:28:08.476Z,11.40
2019-03-21T12:30:42.424Z,11.50
2019-03-21T12:33:12.088Z,11.40
2019-03-21T12:35:41.632Z,11.50
2019-03-21T12:38:11.817Z,11.50
2019-03-21T12:40:41.295Z,11.50
2019-03-21T12:43:10.754Z,11.60
2019-03-21T12:45:40.289Z,11.70
2019-03-21T12:48:09.793Z,11.70
2019-03-21T12:50:42.053Z,11.60
2019-03-21T12:53:11.601Z,11.60
2019-03-21T12:55:41.107Z,11.80
2019-03-21T12:58:10.550Z,11.80
2019-03-21T13:00:41.597Z,11.70
2019-03-21T13:03:11.351Z,11.70
2019-03-21T13:05:40.902Z,11.80
2019-03-21T13:08:10.449Z,11.80
2019-03-21T13:10:40.006Z,11.90
2019-03-21T13:13:09.676Z,12.10
2019-03-21T13:15:39.240Z,12.10
2019-03-21T13:18:09.503Z,12.20
2019-03-21T13:20:39.328Z,12.40
2019-03-21T13:23:10.662Z,12.40
2019-03-21T13:25:40.147Z,12.20
2019-03-21T13:28:09.664Z,12.20
2019-03-21T13:30:39.289Z,12.30
2019-03-21T13:33:11.453Z,12.30
2019-03-21T13:35:40.886Z,12.50
2019-03-21T13:38:10.407Z,12.50
2019-03-21T13:40:39.829Z,12.40
2019-03-21T13:43:11.319Z,12.50
2019-03-21T13:45:40.606Z,12.50
2019-03-21T13:48:10.361Z,12.60
2019-03-21T13:50:40.153Z,12.70
2019-03-21T13:53:18.578Z,12.80
2019-03-21T13:55:41.166Z,12.90
2019-03-21T13:58:10.562Z,12.90
2019-03-21T14:00:41.160Z,12.90
2019-03-21T14:03:12.404Z,12.80
2019-03-21T14:05:41.969Z,12.80
2019-03-21T14:08:11.386Z,12.70
2019-03-21T14:10:40.765Z,12.80
2019-03-21T14:13:10.214Z,12.80
2019-03-21T14:15:40.129Z,12.80
2019-03-21T14:18:09.753Z,12.90
2019-03-21T14:20:41.965Z,12.80
2019-03-21T14:23:17.245Z,12.60
2019-03-21T14:25:45.100Z,12.50
2019-03-21T14:28:14.577Z,12.60
2019-03-21T14:30:44.214Z,12.60
2019-03-21T14:33:13.819Z,12.60
2019-03-21T14:35:43.374Z,12.40
2019-03-21T14:38:25.895Z,12.20
2019-03-21T14:40:46.396Z,12.30
2019-03-21T14:43:16.034Z,12.30
2019-03-21T14:45:45.582Z,12.50
2019-03-21T14:48:15.030Z,12.50
2019-03-21T14:50:44.590Z,12.60
2019-03-21T14:53:14.074Z,12.40
2019-03-21T14:55:47.662Z,12.50
2019-03-21T14:58:14.641Z,12.50
2019-03-21T15:00:45.312Z,12.50
2019-03-21T15:03:14.869Z,12.50
2019-03-21T15:05:44.407Z,12.50
2019-03-21T15:08:13.919Z,12.50
2019-03-21T15:10:43.456Z,12.50
2019-03-21T15:13:12.941Z,12.50
2019-03-21T15:15:42.445Z,12.50
2019-03-21T15:18:12.069Z,12.40
2019-03-21T15:20:41.987Z,12.40
2019-03-21T15:23:14.083Z,12.30
2019-03-21T15:25:43.591Z,12.30
2019-03-21T15:28:13.303Z,12.30
2019-03-21T15:30:43.055Z,12.30
2019-03-21T15:33:12.599Z,12.20
2019-03-21T15:35:42.168Z,12.10
2019-03-21T15:38:11.711Z,12.20
2019-03-21T15:40:41.302Z,12.20
2019-03-21T15:43:10.995Z,12.10
2019-03-21T15:45:42.134Z,12.10
2019-03-21T15:48:15.616Z,12.00
2019-03-21T15:50:49.832Z,12.00
2019-03-21T15:53:20.476Z,11.90
2019-03-21T15:55:50.525Z,11.90
2019-03-21T15:58:20.292Z,11.90
2019-03-21T16:00:49.753Z,11.80
2019-03-21T16:03:32.595Z,11.80
2019-03-21T16:06:02.190Z,11.70
2019-03-21T16:08:31.952Z,11.60
2019-03-21T16:11:01.491Z,11.60
2019-03-21T16:13:31.140Z,11.50
2019-03-21T16:16:00.724Z,11.50
2019-03-21T16:18:32.377Z,11.40
2019-03-21T16:21:02.112Z,11.30
2019-03-21T16:23:31.534Z,11.30
2019-03-21T16:26:01.360Z,11.20
2019-03-21T16:28:31.122Z,11.20
2019-03-21T16:31:40.491Z,11.20
2019-03-21T16:34:34.097Z,11.20
2019-03-21T16:37:07.630Z,11.00
2019-03-21T16:40:06.721Z,10.90
2019-03-21T16:42:37.673Z,10.80
2019-03-21T16:45:10.415Z,10.70
2019-03-21T16:47:39.909Z,10.60
2019-03-21T16:50:09.676Z,10.50
2019-03-21T16:52:40.840Z,10.50
2019-03-21T16:55:10.678Z,10.40
2019-03-21T16:57:40.330Z,10.30
2019-03-21T17:00:10.237Z,10.10
2019-03-21T17:02:41.014Z,9.90
2019-03-21T17:05:11.081Z,9.80
2019-03-21T17:07:41.222Z,9.70
2019-03-21T17:10:11.755Z,9.70
2019-03-21T17:12:42.288Z,9.60
2019-03-21T17:15:12.012Z,9.60
2019-03-21T17:17:41.625Z,9.50
2019-03-21T17:20:11.422Z,9.40
2019-03-21T17:22:41.475Z,9.40
2019-03-21T17:25:11.840Z,9.30
2019-03-21T17:27:41.282Z,9.30
2019-03-21T17:30:12.033Z,9.10
2019-03-21T17:32:41.550Z,9.10
2019-03-21T17:35:11.400Z,8.90
2019-03-21T17:37:40.909Z,8.80
2019-03-21T17:40:13.090Z,8.70
2019-03-21T17:42:43.313Z,8.60
2019-03-21T17:45:14.385Z,8.50
2019-03-21T17:47:45.943Z,8.40
2019-03-21T17:50:17.047Z,8.40
2019-03-21T17:52:46.690Z,8.30
2019-03-21T17:55:16.462Z,8.20
2019-03-21T17:57:47.733Z,8.10
2019-03-21T18:00:19.129Z,8.00
2019-03-21T18:02:48.773Z,8.00
2019-03-21T18:05:18.439Z,7.90
2019-03-21T18:07:48.022Z,7.80
2019-03-21T18:10:28.485Z,7.90
2019-03-21T18:12:58.200Z,7.80
2019-03-21T18:15:29.418Z,7.70
2019-03-21T18:18:05.930Z,7.60
2019-03-21T18:20:36.099Z,7.50
2019-03-21T18:23:05.761Z,7.40
2019-03-21T18:25:35.306Z,7.30
2019-03-21T18:36:12.012Z,6.90
2019-03-21T18:38:42.002Z,6.80
2019-03-21T18:41:11.487Z,6.70
2019-03-21T18:43:40.926Z,6.70
2019-03-21T18:46:10.400Z,6.70
2019-03-21T18:48:39.812Z,6.70
2019-03-21T18:51:09.342Z,6.60
2019-03-21T18:53:38.858Z,6.50
2019-03-21T18:56:09.583Z,6.40
2019-03-21T18:58:39.154Z,6.30
2019-03-21T19:01:08.721Z,6.20
2019-03-21T19:03:38.209Z,6.00
2019-03-21T19:06:07.619Z,5.90
2019-03-21T19:08:37.042Z,5.80
2019-03-21T19:11:06.474Z,5.80
2019-03-21T19:13:35.895Z,5.70
2019-03-21T19:16:05.488Z,5.50
2019-03-21T19:18:34.934Z,5.40
2019-03-21T19:21:04.490Z,5.30
2019-03-21T19:23:33.902Z,5.20
2019-03-21T19:26:03.466Z,5.10
2019-03-21T19:28:32.908Z,5.00
2019-03-21T19:31:02.472Z,4.90
2019-03-21T19:33:32.058Z,4.80
2019-03-21T19:36:02.824Z,4.70
2019-03-21T19:38:33.849Z,4.60
2019-03-21T19:41:03.398Z,4.50
2019-03-21T19:43:33.181Z,4.40
2019-03-21T19:46:05.331Z,4.30
2019-03-21T19:48:35.983Z,4.20
2019-03-21T19:51:05.625Z,4.10
2019-03-21T19:53:35.137Z,4.00
2019-03-21T19:56:08.762Z,3.90
2019-03-21T19:58:35.997Z,3.90
2019-03-21T20:01:05.825Z,3.80
2019-03-21T20:03:36.612Z,3.80
2019-03-21T20:06:07.084Z,3.70
2019-03-21T20:08:36.998Z,3.60
2019-03-21T20:11:06.591Z,3.50
2019-03-21T20:13:36.594Z,3.50
2019-03-21T20:16:06.273Z,3.40
2019-03-21T20:18:35.850Z,3.40
2019-03-21T20:21:05.535Z,3.40
2019-03-21T20:23:35.045Z,3.40
2019-03-21T20:26:04.848Z,3.40
2019-03-21T20:28:34.433Z,3.40
2019-03-21T20:31:04.206Z,3.40
2019-03-21T20:33:33.731Z,3.30
2019-03-21T20:36:03.616Z,3.30
2019-03-21T20:38:33.210Z,3.20
2019-03-21T20:41:02.797Z,3.10
2019-03-21T20:43:32.338Z,3.00
2019-03-21T20:46:01.930Z,3.00
2019-03-21T20:48:30.443Z,2.90
2019-03-21T20:51:00.420Z,2.90
2019-03-21T20:53:29.922Z,2.80
2019-03-21T20:55:59.357Z,2.70
2019-03-21T20:58:28.987Z,2.70
2019-03-21T21:00:58.615Z,2.60
2019-03-21T21:03:28.307Z,2.50
2019-03-21T21:05:57.871Z,2.50
2019-03-21T21:08:27.315Z,2.50
2019-03-21T21:10:58.420Z,2.40
2019-03-21T21:13:28.133Z,2.40
2019-03-21T21:15:57.760Z,2.40
2019-03-21T21:18:28.295Z,2.30
2019-03-21T21:20:57.888Z,2.30
2019-03-21T21:23:27.771Z,2.30
2019-03-21T21:26:05.354Z,2.30
2019-03-21T21:28:30.435Z,2.30
2019-03-21T21:31:19.154Z,2.20
2019-03-21T21:33:50.599Z,2.10
2019-03-21T21:36:22.097Z,2.00
2019-03-21T21:38:52.781Z,2.00
2019-03-21T21:41:22.394Z,2.00
2019-03-21T21:43:55.074Z,1.90
2019-03-21T21:46:24.956Z,1.90
2019-03-21T21:48:54.792Z,1.90
2019-03-21T21:51:24.402Z,1.80
2019-03-21T21:53:53.929Z,1.80
2019-03-21T21:56:24.650Z,1.70
2019-03-21T21:58:54.546Z,1.70
2019-03-21T22:01:24.081Z,1.70
2019-03-21T22:04:04.207Z,1.60
2019-03-21T22:06:25.878Z,1.60
2019-03-21T22:08:56.164Z,1.60
2019-03-21T22:11:27.375Z,1.60
2019-03-21T22:13:57.126Z,1.50
2019-03-21T22:16:27.370Z,1.40
2019-03-21T22:18:56.977Z,1.40
2019-03-21T22:21:31.037Z,1.30
2019-03-21T22:24:00.671Z,1.20
2019-03-21T22:26:30.647Z,1.20
2019-03-21T22:29:00.105Z,1.20
2019-03-21T22:31:29.693Z,1.30
2019-03-21T22:33:59.229Z,1.30
2019-03-21T22:36:31.974Z,1.30
2019-03-21T22:39:03.745Z,1.30
2019-03-21T22:41:33.378Z,1.30
2019-03-21T23:53:35.925Z,-0.10
2019-03-21T23:56:05.409Z,0.00
2019-03-21T23:58:34.810Z,-0.10
